Главная страница
METAR-TAF:

METAR-TAF

Аэропорты :

Кувейт, Кувейт

широта: 29-13N, долгота: 047-59E, высота над уровнем моря: 55 м

Текущие метеонаблюдения

Эта сводка был подготовлена 22 минут назад, в 12:00 UTC
Ветер 6 Узел от западно-северо-западный
Температура 42°C
Влажность 14%
Давление 1005 hPa
Видимость: 7000 м

METAR: OKKK 201200Z 29006KT 7000 NSC 42/09 Q1005 NOSIG

Время: 15:22 (12:22 UTC)

Прогноз

Эта сводка был подготовлена 1 час и 22 минут назад, в 11:00 UTC
Прогноз действительный с 20-го 12 UTC до 21-го 18 UTC
Ветер 3 Узел переменных направлений
Видимость: 7000 м
временами
С 20-го 12 UTC до 21-го 03 UTC
Ветер 8 Узел от северно-северо-западный
изменения
С 21-го 04 UTC до 21-го 06 UTC
Ветер 10 Узел от юго-восточный с порывами до 20 Узел

TAF: OKKK 201100Z 2012/2118 VRB03KT 7000 NSC TEMPO 2012/2103 34008KT BECMG 2104/2106 14010G20KT

Метеонаблюдения и прогнозы для более 4000 аэропортов (сводки METAR и TAF).

Имеющиеся станции представлены на карте желтыми и красными точками.

Чтобы увидеть название станции, наведите на нее мышь.

Затем щелкните, чтобы увидеть метеонаблюдения и метеопрогнозы.

Управление картой: чтобы увеличить масштаб, щелкните зеленые кнопки с черным крестиком; чтобы уменьшить масштаб, щелкните зеленую кнопку с тире; для просмотра соседних карт щелкайте зеленые стрелки.


METAR-TAF: